Time;durP1;ratioP1;P1;durP2;ratioP2;P2;SDS_P1;SDS_P2;PMS_P1;PMS_P2;Temp;Humidity;BMP_temperature;BMP_pressure;BME280_temperature;BME280_humidity;BME280_pressure;Samples;Min_cycle;Max_cycle;Signal;HPM_P1;HPM_P2
2022/11/20 00:01:40;;;;;;;6.57;4.65;;;16.00;63.20;;;;;;10451907;28;20017;-57
2022/11/20 00:06:41;;;;;;;3.72;2.80;;;16.10;63.10;;;;;;10450210;28;20025;-58
2022/11/20 00:11:41;;;;;;;4.65;2.95;;;16.10;63.10;;;;;;10449983;28;20096;-57
2022/11/20 00:16:42;;;;;;;4.32;2.88;;;16.10;63.00;;;;;;10447821;28;20608;-58
2022/11/20 00:21:42;;;;;;;4.93;3.42;;;16.10;62.70;;;;;;10449667;28;20637;-57
2022/11/20 00:26:44;;;;;;;3.60;2.80;;;16.10;62.70;;;;;;10449973;28;20064;-58
2022/11/20 00:31:44;;;;;;;4.47;2.95;;;16.00;62.70;;;;;;10448978;28;20032;-56
2022/11/20 00:36:45;;;;;;;5.38;2.90;;;16.00;62.50;;;;;;10450416;28;20520;-58
2022/11/20 00:41:45;;;;;;;3.53;3.05;;;16.00;62.50;;;;;;10450110;28;20063;-57
2022/11/20 00:46:46;;;;;;;3.72;2.88;;;16.00;62.40;;;;;;10448664;28;20064;-58
2022/11/20 00:51:47;;;;;;;3.70;2.75;;;16.10;62.30;;;;;;10448680;28;20025;-57
2022/11/20 00:56:47;;;;;;;3.38;2.72;;;16.10;62.10;;;;;;10449964;28;20021;-57
2022/11/20 01:01:48;;;;;;;4.47;2.90;;;16.10;61.90;;;;;;10448182;28;20031;-57
2022/11/20 01:06:49;;;;;;;4.30;2.75;;;16.10;61.90;;;;;;10448433;28;20025;-58
2022/11/20 01:11:49;;;;;;;3.42;2.90;;;16.10;62.00;;;;;;10448964;28;20100;-58
2022/11/20 01:16:51;;;;;;;3.20;2.38;;;16.10;61.80;;;;;;10447995;28;20047;-58
2022/11/20 01:21:54;;;;;;;4.78;2.95;;;16.20;61.60;;;;;;10447121;28;20036;-58
2022/11/20 01:26:54;;;;;;;3.78;2.75;;;16.10;61.50;;;;;;10446419;28;20057;-58
2022/11/20 01:31:55;;;;;;;3.65;2.50;;;16.10;61.50;;;;;;10448045;28;20536;-58
2022/11/20 01:36:56;;;;;;;3.70;2.63;;;16.20;61.20;;;;;;10446553;28;20076;-57
2022/11/20 01:47:43;;;;;;;3.05;2.75;;;16.20;61.00;;;;;;10448529;28;20431;-58
2022/11/20 01:52:54;;;;;;;5.25;2.67;;;16.20;60.90;;;;;;10431194;28;20090;-57
2022/11/20 01:57:55;;;;;;;4.15;2.67;;;16.10;61.00;;;;;;10446371;28;20430;-57
2022/11/20 02:03:09;;;;;;;4.00;2.90;;;16.10;61.00;;;;;;10445820;28;20162;-57
2022/11/20 02:08:09;;;;;;;6.15;3.25;;;16.20;60.90;;;;;;10445974;28;20760;-58
2022/11/20 02:18:30;;;;;;;3.97;3.25;;;16.10;60.80;;;;;;10446386;28;20416;-58
2022/11/20 02:24:00;;;;;;;3.03;2.67;;;16.20;60.60;;;;;;10445042;28;20395;-57
2022/11/20 02:29:03;;;;;;;4.05;2.67;;;16.20;60.40;;;;;;10445576;28;20029;-57
2022/11/20 02:34:03;;;;;;;3.17;2.30;;;16.20;60.30;;;;;;10444745;28;20053;-57
2022/11/20 02:39:05;;;;;;;4.22;3.10;;;16.10;60.40;;;;;;10451576;28;20424;-58
2022/11/20 02:44:06;;;;;;;4.13;2.65;;;16.10;60.50;;;;;;10436681;28;20476;-59
2022/11/20 02:49:06;;;;;;;4.60;2.67;;;16.10;60.40;;;;;;10453268;28;20112;-58
2022/11/20 02:54:07;;;;;;;4.50;3.05;;;16.10;60.30;;;;;;10453266;28;20025;-57
2022/11/20 02:59:08;;;;;;;3.75;2.67;;;16.20;60.20;;;;;;10454337;28;20045;-58
2022/11/20 03:04:08;;;;;;;3.35;2.67;;;16.20;60.00;;;;;;10436186;28;20109;-57
2022/11/20 03:09:09;;;;;;;3.75;2.80;;;16.30;59.60;;;;;;10453974;28;20086;-58
2022/11/20 03:14:10;;;;;;;3.13;2.80;;;16.30;59.70;;;;;;10452342;28;20621;-57
2022/11/20 03:19:12;;;;;;;3.85;2.67;;;16.20;59.80;;;;;;10453401;28;20025;-57
2022/11/20 03:24:13;;;;;;;4.82;2.88;;;16.20;59.90;;;;;;10453650;28;20053;-57
2022/11/20 03:29:14;;;;;;;4.25;2.58;;;16.20;59.70;;;;;;10451608;28;20025;-58
2022/11/20 03:34:15;;;;;;;3.88;2.83;;;16.20;59.70;;;;;;10452984;28;20102;-58
2022/11/20 03:39:15;;;;;;;5.13;3.28;;;16.20;59.40;;;;;;10451337;28;20023;-58
2022/11/20 03:44:16;;;;;;;4.50;3.15;;;16.20;59.30;;;;;;10452443;28;20052;-58
2022/11/20 03:49:16;;;;;;;4.43;2.72;;;16.20;59.30;;;;;;10451817;28;20566;-57
2022/11/20 03:54:17;;;;;;;4.13;2.80;;;16.20;59.30;;;;;;10452091;28;20064;-57
2022/11/20 03:59:18;;;;;;;4.15;2.95;;;16.30;59.10;;;;;;10450768;28;20159;-57
2022/11/20 04:04:18;;;;;;;3.85;2.58;;;16.20;59.10;;;;;;10451501;28;20060;-58
2022/11/20 04:09:19;;;;;;;3.63;2.47;;;16.20;59.10;;;;;;10449949;28;20037;-57
2022/11/20 04:14:20;;;;;;;5.55;2.42;;;16.30;58.90;;;;;;10451101;28;20703;-58
2022/11/20 04:19:20;;;;;;;4.43;3.03;;;16.20;58.90;;;;;;10451253;28;20021;-57
2022/11/20 04:24:21;;;;;;;4.80;2.80;;;16.20;58.70;;;;;;10449483;28;20096;-58
2022/11/20 04:29:22;;;;;;;3.80;2.80;;;16.20;58.70;;;;;;10449812;28;20017;-58
2022/11/20 04:34:22;;;;;;;3.97;2.80;;;16.20;58.70;;;;;;10448754;28;20124;-58
2022/11/20 04:39:23;;;;;;;3.58;2.50;;;16.30;58.50;;;;;;10448962;28;20088;-57
2022/11/20 04:44:24;;;;;;;3.42;2.58;;;16.20;58.40;;;;;;10450248;28;20051;-57
2022/11/20 04:49:24;;;;;;;3.15;2.65;;;16.20;58.40;;;;;;10448212;28;20075;-58
2022/11/20 04:54:25;;;;;;;3.30;2.72;;;16.20;58.30;;;;;;10452503;28;20143;-58
2022/11/20 04:59:25;;;;;;;3.72;2.75;;;16.20;58.30;;;;;;10448510;28;20128;-58
2022/11/20 05:04:26;;;;;;;3.13;2.10;;;16.30;58.20;;;;;;10447885;28;21003;-58
2022/11/20 05:09:27;;;;;;;4.18;2.65;;;16.20;58.20;;;;;;10448247;28;20052;-60
2022/11/20 05:14:27;;;;;;;4.43;3.05;;;16.20;58.30;;;;;;10464743;28;20116;-57
2022/11/20 05:19:28;;;;;;;2.88;2.30;;;16.20;58.10;;;;;;10447405;28;20420;-58
2022/11/20 05:24:29;;;;;;;3.63;2.35;;;16.20;58.20;;;;;;10479287;28;20362;-58
2022/11/20 05:29:29;;;;;;;10.75;3.88;;;16.20;58.20;;;;;;10447427;28;20607;-58
2022/11/20 05:34:30;;;;;;;13.00;3.17;;;16.20;59.90;;;;;;10448042;28;20076;-60
2022/11/20 05:39:31;;;;;;;9.63;3.10;;;16.30;60.10;;;;;;10445224;28;20056;-57
2022/11/20 05:44:31;;;;;;;8.98;4.55;;;16.30;59.70;;;;;;10446127;28;20150;-58
2022/11/20 05:49:32;;;;;;;7.70;3.17;;;16.30;60.50;;;;;;10447127;28;20068;-58
2022/11/20 05:54:33;;;;;;;12.10;3.70;;;16.40;60.90;;;;;;10445420;28;20174;-60
2022/11/20 05:59:33;;;;;;;11.23;3.13;;;16.30;61.70;;;;;;10446423;28;20679;-59
2022/11/20 06:04:34;;;;;;;9.52;4.07;;;16.20;62.70;;;;;;10444458;28;20107;-59
2022/11/20 06:09:34;;;;;;;13.63;3.58;;;16.20;62.10;;;;;;10446612;28;20013;-58
2022/11/20 06:14:35;;;;;;;10.02;3.47;;;16.20;62.00;;;;;;10446351;28;20071;-58
2022/11/20 06:19:36;;;;;;;7.82;4.07;;;16.20;61.60;;;;;;10444525;28;20502;-59
2022/11/20 06:24:37;;;;;;;8.98;3.03;;;16.10;62.10;;;;;;10444360;28;20025;-59
2022/11/20 06:29:37;;;;;;;9.63;3.45;;;16.10;61.90;;;;;;10444963;28;20048;-59
2022/11/20 06:34:38;;;;;;;12.60;3.20;;;16.10;61.60;;;;;;10444600;28;20043;-59
2022/11/20 06:39:38;;;;;;;11.02;3.72;;;16.10;61.90;;;;;;10460772;28;20032;-59
2022/11/20 06:44:39;;;;;;;10.32;3.58;;;16.10;61.80;;;;;;10444446;28;20119;-59
2022/11/20 06:49:40;;;;;;;7.88;3.33;;;16.20;61.90;;;;;;10444399;28;20025;-60
2022/11/20 06:54:40;;;;;;;11.77;3.83;;;16.40;61.10;;;;;;10474503;28;20150;-59
2022/11/20 06:59:41;;;;;;;9.02;3.47;;;16.30;60.60;;;;;;10444017;28;20041;-62
2022/11/20 07:04:42;;;;;;;15.10;3.72;;;16.40;59.90;;;;;;10443542;28;20613;-59
2022/11/20 07:09:42;;;;;;;13.45;4.93;;;16.70;59.40;;;;;;10445264;28;20070;-59
2022/11/20 07:14:43;;;;;;;14.30;4.65;;;16.70;58.60;;;;;;10445735;28;20116;-59
2022/11/20 07:19:44;;;;;;;14.45;4.88;;;16.60;57.10;;;;;;10445427;28;20425;-58
2022/11/20 07:24:44;;;;;;;19.42;5.10;;;16.40;56.80;;;;;;10446551;28;20107;-61
2022/11/20 07:29:45;;;;;;;13.50;4.22;;;16.40;57.10;;;;;;10450885;28;20088;-60
2022/11/20 07:34:46;;;;;;;26.08;5.25;;;16.30;57.50;;;;;;10450364;28;20065;-60
2022/11/20 07:39:47;;;;;;;13.68;3.88;;;16.20;57.80;;;;;;10449123;28;20116;-60
2022/11/20 07:44:47;;;;;;;9.57;4.72;;;16.10;58.40;;;;;;10450633;28;20025;-60
2022/11/20 07:49:48;;;;;;;8.15;3.72;;;16.00;59.10;;;;;;10452141;28;20053;-59
2022/11/20 07:54:49;;;;;;;6.65;4.03;;;15.90;58.30;;;;;;10452339;28;20060;-60
2022/11/20 07:59:49;;;;;;;8.98;3.95;;;16.00;58.30;;;;;;10450728;28;20512;-59
2022/11/20 08:04:50;;;;;;;9.15;3.90;;;16.10;58.20;;;;;;10433889;28;20059;-59
2022/11/20 08:09:51;;;;;;;6.60;3.95;;;16.00;58.10;;;;;;10451095;28;20120;-59
2022/11/20 08:14:51;;;;;;;18.05;4.63;;;16.10;58.00;;;;;;10446000;28;20053;-59
2022/11/20 08:19:52;;;;;;;6.75;3.85;;;16.10;58.00;;;;;;10450915;28;20115;-59
2022/11/20 08:24:53;;;;;;;13.32;4.47;;;16.10;58.00;;;;;;10450038;28;20059;-59
2022/11/20 08:29:53;;;;;;;7.13;3.63;;;16.00;58.00;;;;;;10449245;28;20168;-58
2022/11/20 08:34:54;;;;;;;5.57;3.38;;;16.00;58.10;;;;;;10449373;28;20073;-59
2022/11/20 08:39:56;;;;;;;10.95;3.60;;;16.00;58.50;;;;;;10445447;28;20747;-58
2022/11/20 08:44:57;;;;;;;9.05;3.80;;;15.90;58.40;;;;;;10444786;28;20063;-57
2022/11/20 08:49:58;;;;;;;11.60;4.15;;;16.20;58.60;;;;;;10444445;28;20107;-58
2022/11/20 08:54:58;;;;;;;7.20;3.78;;;16.20;58.80;;;;;;10446520;28;20025;-58
2022/11/20 08:59:59;;;;;;;9.43;4.25;;;16.20;59.30;;;;;;10428843;28;20056;-58
2022/11/20 09:05:02;;;;;;;6.40;4.20;;;16.20;59.30;;;;;;10444704;28;20893;-58
2022/11/20 09:10:03;;;;;;;11.00;5.15;;;16.30;59.30;;;;;;10445406;28;20104;-56
2022/11/20 09:15:04;;;;;;;8.57;4.25;;;16.20;60.40;;;;;;10447710;28;20512;-57
2022/11/20 09:20:05;;;;;;;10.13;3.75;;;16.20;61.00;;;;;;10448648;28;20036;-56
2022/11/20 09:25:06;;;;;;;18.38;5.80;;;16.20;61.90;;;;;;10448637;28;20033;-56
2022/11/20 09:30:10;;;;;;;9.82;3.72;;;16.20;61.60;;;;;;10448473;28;20025;-55
2022/11/20 09:35:11;;;;;;;6.47;3.40;;;16.20;62.00;;;;;;10446496;28;20063;-57
2022/11/20 09:40:29;;;;;;;11.02;3.67;;;16.10;62.20;;;;;;10447612;28;20071;-58
2022/11/20 09:46:02;;;;;;;12.90;4.53;;;16.10;62.30;;;;;;10445926;28;20120;-57
2022/11/20 09:51:53;;;;;;;17.00;5.45;;;16.20;62.10;;;;;;10443528;28;20017;-56
2022/11/20 09:57:05;;;;;;;9.82;4.22;;;16.10;62.90;;;;;;10434293;28;20060;-56
2022/11/20 10:02:24;;;;;;;15.63;4.93;;;16.00;62.10;;;;;;10429698;28;20059;-57
2022/11/20 10:07:44;;;;;;;10.70;4.18;;;16.00;62.00;;;;;;10447065;28;20037;-57
2022/11/20 10:12:55;;;;;;;15.90;5.60;;;16.00;62.00;;;;;;10445799;28;20105;-57
2022/11/20 10:18:07;;;;;;;12.50;4.43;;;15.90;62.00;;;;;;10445642;28;20029;-57
2022/11/20 10:23:35;;;;;;;15.02;4.72;;;15.90;62.10;;;;;;10446560;28;20029;-57
2022/11/20 10:29:07;;;;;;;12.68;5.03;;;16.00;62.30;;;;;;10445083;28;20025;-56
2022/11/20 10:34:48;;;;;;;16.85;5.13;;;15.90;62.60;;;;;;10445071;28;20048;-56
2022/11/20 10:40:05;;;;;;;;;;;15.80;62.70;;;;;;10445360;28;20060;-57
2022/11/20 10:45:25;;;;;;;9.85;4.82;;;15.90;62.70;;;;;;10446478;28;19920;-56
2022/11/20 10:50:27;;;;;;;11.93;4.95;;;15.90;62.70;;;;;;10444720;28;20056;-56
2022/11/20 10:55:46;;;;;;;13.80;5.38;;;15.90;62.70;;;;;;10445033;28;20456;-58
2022/11/20 11:00:47;;;;;;;17.40;4.95;;;15.90;63.00;;;;;;10449744;28;20029;-57
2022/11/20 11:06:08;;;;;;;14.93;5.38;;;15.90;63.10;;;;;;10454111;28;20029;-57
2022/11/20 11:11:25;;;;;;;22.30;6.30;;;15.90;63.30;;;;;;10452360;28;20092;-57
2022/11/20 11:16:26;;;;;;;16.33;6.05;;;15.90;63.50;;;;;;10453885;28;20574;-57
2022/11/20 11:21:27;;;;;;;19.50;6.50;;;16.00;64.00;;;;;;10448871;28;20024;-57
2022/11/20 11:26:28;;;;;;;20.38;7.70;;;16.10;65.30;;;;;;10464103;28;20132;-57
2022/11/20 11:31:32;;;;;;;18.30;6.43;;;16.10;64.90;;;;;;10452750;28;20044;-56
2022/11/20 11:36:35;;;;;;;19.73;8.23;;;16.20;65.30;;;;;;10452675;28;20136;-57
2022/11/20 11:41:36;;;;;;;13.73;7.40;;;16.20;65.20;;;;;;10450425;28;20404;-57
2022/11/20 11:46:37;;;;;;;32.63;8.48;;;16.10;66.20;;;;;;10452680;28;20041;-55
2022/11/20 11:52:16;;;;;;;24.90;10.85;;;16.10;66.80;;;;;;10452546;28;20103;-57
2022/11/20 11:57:23;;;;;;;24.65;8.98;;;16.10;66.90;;;;;;10409295;28;20041;-57
2022/11/20 12:02:45;;;;;;;24.05;10.05;;;16.10;66.70;;;;;;10449213;28;20060;-57
2022/11/20 12:08:15;;;;;;;26.40;12.75;;;15.90;67.00;;;;;;10447313;28;20365;-58
2022/11/20 12:13:24;;;;;;;24.10;15.90;;;16.00;67.60;;;;;;10449740;28;20021;-58
2022/11/20 12:18:26;;;;;;;35.20;17.20;;;16.00;69.90;;;;;;10449252;28;20024;-57
2022/11/20 12:23:51;;;;;;;32.45;16.13;;;16.00;69.10;;;;;;10448658;28;20021;-57
2022/11/20 12:29:13;;;;;;;20.77;13.02;;;16.00;69.10;;;;;;10469713;28;20112;-60
2022/11/20 12:34:48;;;;;;;26.92;12.65;;;15.90;68.70;;;;;;10449444;28;20079;-61
2022/11/20 12:39:52;;;;;;;26.45;13.32;;;15.80;68.80;;;;;;10450362;28;20388;-59
2022/11/20 12:45:35;;;;;;;23.63;13.80;;;15.80;69.10;;;;;;10450372;28;20033;-59
2022/11/20 12:51:01;;;;;;;27.25;14.02;;;15.80;69.80;;;;;;10450244;28;20079;-59
2022/11/20 12:56:25;;;;;;;26.67;12.85;;;15.80;70.20;;;;;;10449642;28;20025;-58
2022/11/20 13:02:02;;;;;;;25.73;12.05;;;15.80;69.60;;;;;;10449743;28;20037;-57
2022/11/20 13:07:11;;;;;;;26.48;12.05;;;15.80;69.60;;;;;;10447899;28;20025;-61
2022/11/20 13:12:44;;;;;;;21.25;12.13;;;15.70;69.30;;;;;;10463948;28;20028;-61
2022/11/20 13:17:56;;;;;;;25.73;11.02;;;15.70;69.60;;;;;;10456003;28;20033;-62
2022/11/20 13:22:57;;;;;;;19.15;10.65;;;15.80;69.70;;;;;;10452893;28;20025;-61
2022/11/20 13:28:19;;;;;;;19.95;11.38;;;15.80;69.90;;;;;;10430818;28;20033;-59
2022/11/20 13:33:31;;;;;;;17.08;8.55;;;15.80;69.80;;;;;;10447996;28;20523;-61
2022/11/20 13:38:52;;;;;;;20.35;10.10;;;16.10;68.90;;;;;;10443621;28;20017;-61
2022/11/20 13:43:53;;;;;;;27.83;9.63;;;16.40;68.30;;;;;;10445975;28;20021;-60
2022/11/20 13:49:10;;;;;;;18.83;9.57;;;16.50;67.70;;;;;;10445899;28;20033;-59
2022/11/20 13:54:52;;;;;;;18.58;10.85;;;16.70;67.70;;;;;;10446408;28;20013;-61
2022/11/20 14:00:18;;;;;;;25.50;8.65;;;17.00;66.90;;;;;;10447616;28;20043;-60
2022/11/20 14:05:23;;;;;;;15.70;8.30;;;16.90;66.90;;;;;;10447202;28;20033;-60
2022/11/20 14:10:28;;;;;;;22.67;7.50;;;16.90;67.40;;;;;;10446038;28;20668;-60
2022/11/20 14:15:34;;;;;;;18.35;7.47;;;16.70;68.30;;;;;;10445827;28;20056;-59
2022/11/20 14:20:37;;;;;;;13.98;6.80;;;16.60;68.60;;;;;;10446748;28;20029;-60
2022/11/20 14:25:42;;;;;;;26.70;7.82;;;16.50;68.40;;;;;;10445514;28;20064;-60
2022/11/20 14:30:47;;;;;;;29.90;7.13;;;16.60;67.80;;;;;;10444910;28;20017;-62
2022/11/20 14:35:52;;;;;;;18.45;7.97;;;16.60;67.50;;;;;;10444677;28;20040;-61
2022/11/20 14:40:52;;;;;;;17.13;6.97;;;16.60;67.70;;;;;;10444917;28;20024;-61
2022/11/20 14:46:07;;;;;;;16.75;7.65;;;16.60;67.50;;;;;;10444340;28;20480;-59
2022/11/20 14:51:40;;;;;;;29.90;9.18;;;16.60;67.40;;;;;;10428842;28;20025;-62
2022/11/20 14:56:53;;;;;;;30.48;8.52;;;16.60;67.40;;;;;;10445081;28;20368;-61
2022/11/20 15:02:05;;;;;;;24.58;6.97;;;16.50;67.60;;;;;;10441943;28;20450;-60
2022/11/20 15:07:06;;;;;;;29.95;7.63;;;16.60;67.70;;;;;;10442150;28;20496;-60
2022/11/20 15:12:17;;;;;;;14.77;6.53;;;16.60;67.90;;;;;;10444948;28;20082;-60
2022/11/20 15:17:17;;;;;;;17.65;5.80;;;16.50;68.40;;;;;;10443459;28;20024;-62
2022/11/20 15:22:18;;;;;;;16.60;7.57;;;16.60;67.50;;;;;;10443711;28;20512;-61
2022/11/20 15:27:19;;;;;;;21.25;8.45;;;16.50;67.30;;;;;;10444516;28;20075;-62
2022/11/20 15:32:20;;;;;;;14.63;6.43;;;16.50;66.90;;;;;;10445237;28;20159;-60
2022/11/20 15:37:20;;;;;;;21.30;6.03;;;16.60;67.00;;;;;;10427246;28;20087;-59
2022/11/20 15:42:21;;;;;;;15.13;5.63;;;16.60;66.90;;;;;;10443940;28;20049;-61
2022/11/20 15:47:27;;;;;;;18.02;6.35;;;16.70;66.60;;;;;;10445945;28;20064;-60
2022/11/20 15:52:28;;;;;;;22.17;6.57;;;16.70;66.60;;;;;;10433263;28;20104;-60
2022/11/20 15:57:29;;;;;;;26.73;6.50;;;16.80;66.00;;;;;;10450636;28;20088;-61
2022/11/20 16:02:29;;;;;;;21.05;7.50;;;16.80;65.40;;;;;;10450498;28;20044;-61
2022/11/20 16:07:30;;;;;;;15.88;6.82;;;16.80;67.00;;;;;;10450828;28;20071;-62
2022/11/20 16:17:54;;;;;;;13.20;6.30;;;17.10;70.10;;;;;;10440522;28;20651;-61
2022/11/20 16:22:55;;;;;;;12.45;7.45;;;17.20;70.70;;;;;;10449592;28;20044;-61
2022/11/20 16:27:55;;;;;;;14.75;9.35;;;17.30;72.60;;;;;;10450164;28;20543;-61
2022/11/20 16:32:56;;;;;;;22.02;8.43;;;17.30;72.70;;;;;;10448541;28;20108;-63
2022/11/20 16:37:58;;;;;;;18.60;7.55;;;17.40;71.20;;;;;;10448821;28;20053;-63
2022/11/20 16:43:09;;;;;;;35.13;16.92;;;17.10;69.70;;;;;;10464843;28;20636;-62
2022/11/20 16:48:15;;;;;;;76.78;40.47;;;16.90;70.10;;;;;;10448349;28;20029;-62
2022/11/20 16:53:19;;;;;;;51.25;27.55;;;16.80;69.70;;;;;;10440290;28;20025;-61
2022/11/20 16:58:19;;;;;;;41.65;21.85;;;16.70;68.20;;;;;;10441562;28;20028;-63
2022/11/20 17:03:20;;;;;;;31.70;18.55;;;16.60;67.00;;;;;;10449312;28;20121;-65
2022/11/20 17:08:21;;;;;;;28.60;17.42;;;16.80;66.50;;;;;;10443044;28;20071;-65
2022/11/20 17:13:21;;;;;;;24.25;15.02;;;17.10;64.80;;;;;;10448824;28;20053;-63
2022/11/20 17:18:22;;;;;;;21.15;13.82;;;17.20;64.00;;;;;;10447395;28;20045;-63
2022/11/20 17:23:23;;;;;;;23.58;15.25;;;17.40;63.90;;;;;;10448803;28;20056;-62
2022/11/20 17:28:23;;;;;;;28.00;16.67;;;17.60;63.90;;;;;;10447962;28;20190;-62
2022/11/20 17:33:24;;;;;;;27.25;14.63;;;17.70;64.30;;;;;;10446921;28;20120;-62
2022/11/20 17:38:25;;;;;;;23.30;14.98;;;17.70;65.40;;;;;;10446038;28;20116;-61
2022/11/20 17:43:26;;;;;;;21.65;14.85;;;17.60;66.20;;;;;;10446442;28;20352;-61
2022/11/20 17:48:29;;;;;;;21.73;13.43;;;17.60;67.10;;;;;;10447369;28;20127;-60
2022/11/20 17:53:36;;;;;;;21.73;13.93;;;17.90;65.10;;;;;;10479815;28;20422;-62
2022/11/20 17:58:37;;;;;;;22.15;14.13;;;17.60;66.40;;;;;;10447527;28;20043;-62
2022/11/20 18:03:38;;;;;;;31.65;14.50;;;17.20;69.20;;;;;;10446124;28;20052;-60
2022/11/20 18:08:39;;;;;;;22.15;12.70;;;16.90;70.10;;;;;;10444892;28;20032;-60
2022/11/20 18:19:00;;;;;;;25.77;11.85;;;16.80;70.10;;;;;;10433038;28;20468;-64
2022/11/20 18:24:01;;;;;;;17.42;11.52;;;16.70;70.30;;;;;;10428816;28;20464;-63
2022/11/20 18:29:02;;;;;;;21.42;11.88;;;16.50;70.80;;;;;;10445189;28;20037;-62
2022/11/20 18:34:03;;;;;;;20.40;11.45;;;16.40;70.20;;;;;;10445458;28;20045;-61
2022/11/20 18:39:04;;;;;;;21.52;10.48;;;16.30;70.50;;;;;;10427955;28;20116;-62
2022/11/20 18:49:31;;;;;;;17.45;10.95;;;16.10;70.70;;;;;;10443730;28;20025;-61
2022/11/20 18:54:35;;;;;;;19.15;10.77;;;16.10;70.50;;;;;;10442219;28;20017;-62
2022/11/20 18:59:36;;;;;;;19.02;10.63;;;16.00;70.70;;;;;;10445929;28;20020;-62
2022/11/20 19:04:37;;;;;;;28.00;9.68;;;15.90;70.50;;;;;;10443930;28;20112;-62
2022/11/20 19:09:46;;;;;;;15.82;9.80;;;15.80;70.80;;;;;;10440519;28;20025;-62
2022/11/20 19:14:47;;;;;;;17.50;10.35;;;15.80;70.70;;;;;;10444106;28;20448;-61
2022/11/20 19:19:48;;;;;;;15.68;11.45;;;15.70;70.50;;;;;;10447116;28;20029;-62
2022/11/20 19:24:49;;;;;;;17.77;10.05;;;15.70;70.60;;;;;;10449853;28;20455;-62
2022/11/20 19:29:49;;;;;;;15.10;9.43;;;15.60;71.70;;;;;;10451763;28;20052;-62
2022/11/20 19:34:50;;;;;;;15.60;9.50;;;15.50;72.20;;;;;;10451260;28;20630;-62
2022/11/20 19:39:51;;;;;;;16.67;9.18;;;15.40;71.40;;;;;;10451753;28;20112;-61
2022/11/20 19:44:51;;;;;;;14.68;8.98;;;15.50;70.30;;;;;;10452674;28;20053;-62
2022/11/20 19:49:52;;;;;;;13.02;8.13;;;15.60;69.70;;;;;;10451861;28;20140;-61
2022/11/20 19:54:53;;;;;;;14.10;8.70;;;15.70;69.60;;;;;;10450715;28;20258;-62
2022/11/20 19:59:54;;;;;;;10.90;8.52;;;15.70;69.50;;;;;;10450614;28;20160;-62
2022/11/20 20:04:54;;;;;;;15.45;9.98;;;15.70;69.70;;;;;;10451658;28;20037;-58
2022/11/20 20:09:55;;;;;;;16.42;8.38;;;15.60;70.00;;;;;;10444347;28;20120;-58
2022/11/20 20:14:56;;;;;;;14.65;9.27;;;15.70;69.80;;;;;;10449808;28;20045;-57
2022/11/20 20:19:56;;;;;;;16.55;7.65;;;15.70;69.40;;;;;;10445229;28;20064;-61
2022/11/20 20:24:57;;;;;;;12.70;8.13;;;15.80;69.30;;;;;;10449299;28;20056;-57
2022/11/20 20:29:58;;;;;;;16.50;8.07;;;15.80;69.30;;;;;;10448639;28;20071;-59
2022/11/20 20:34:58;;;;;;;14.45;7.53;;;15.70;69.30;;;;;;10448817;28;20162;-59
2022/11/20 20:39:59;;;;;;;10.35;7.32;;;15.60;69.20;;;;;;10446788;28;20044;-59
2022/11/20 20:45:06;;;;;;;13.10;7.68;;;15.70;68.80;;;;;;10447753;28;20616;-59
2022/11/20 20:50:10;;;;;;;11.50;6.78;;;15.80;68.50;;;;;;10446553;28;20039;-58
2022/11/20 20:55:11;;;;;;;12.73;6.85;;;15.90;68.20;;;;;;10447832;28;20341;-57
2022/11/20 21:00:12;;;;;;;9.30;7.28;;;16.00;67.90;;;;;;10448537;28;20009;-59
2022/11/20 21:05:13;;;;;;;10.25;6.72;;;16.00;67.70;;;;;;10454047;28;20024;-58
2022/11/20 21:10:13;;;;;;;11.32;6.38;;;15.90;67.70;;;;;;10449686;28;20040;-59
2022/11/20 21:15:14;;;;;;;12.13;6.95;;;16.00;67.40;;;;;;10444021;28;20056;-58
2022/11/20 21:25:37;;;;;;;9.38;6.63;;;16.00;67.30;;;;;;10436543;28;20032;-59
2022/11/20 21:30:37;;;;;;;9.23;6.20;;;16.00;67.00;;;;;;10447329;28;20104;-59
2022/11/20 21:35:38;;;;;;;10.65;6.75;;;16.00;67.00;;;;;;10480731;28;20059;-57
2022/11/20 21:40:39;;;;;;;8.48;6.50;;;15.90;67.00;;;;;;10446826;28;20108;-59
2022/11/20 21:45:39;;;;;;;10.57;7.07;;;15.90;66.90;;;;;;10447658;28;20032;-58
2022/11/20 21:50:40;;;;;;;10.13;7.57;;;16.00;66.70;;;;;;10443666;28;20096;-59
2022/11/20 21:55:40;;;;;;;9.90;6.43;;;16.00;66.40;;;;;;10439450;28;20487;-58
2022/11/20 22:00:41;;;;;;;9.95;7.25;;;16.10;66.40;;;;;;10447499;28;20052;-56
2022/11/20 22:05:42;;;;;;;11.02;5.97;;;16.00;66.40;;;;;;10447052;28;20052;-56
2022/11/20 22:10:42;;;;;;;9.70;6.15;;;16.00;66.30;;;;;;10445644;28;20537;-58
2022/11/20 22:15:44;;;;;;;7.75;6.45;;;16.10;66.20;;;;;;10453508;28;20020;-59
2022/11/20 22:20:45;;;;;;;11.02;6.68;;;16.00;66.10;;;;;;10445392;28;20056;-58
2022/11/20 22:25:45;;;;;;;7.95;5.57;;;16.00;66.30;;;;;;10445582;28;20061;-59
2022/11/20 22:30:46;;;;;;;8.65;6.53;;;16.00;66.10;;;;;;10446599;28;20052;-59
2022/11/20 22:35:46;;;;;;;7.53;6.03;;;16.00;65.90;;;;;;10446421;28;20095;-57
2022/11/20 22:40:47;;;;;;;8.43;6.85;;;16.10;65.80;;;;;;10445359;28;20104;-58
2022/11/20 22:45:48;;;;;;;7.00;5.47;;;16.10;65.70;;;;;;10449217;28;20097;-57
2022/11/20 22:50:48;;;;;;;9.73;6.15;;;16.00;65.70;;;;;;10438802;28;20765;-58
2022/11/20 22:55:49;;;;;;;9.60;6.05;;;16.10;65.60;;;;;;10461256;28;20816;-58
2022/11/20 23:00:50;;;;;;;8.13;6.00;;;16.10;65.50;;;;;;10451854;28;20106;-58
2022/11/20 23:05:51;;;;;;;6.43;4.93;;;16.10;65.50;;;;;;10452344;28;20033;-58
2022/11/20 23:10:59;;;;;;;7.60;5.78;;;16.10;65.90;;;;;;10453183;28;20012;-57
2022/11/20 23:16:07;;;;;;;6.90;5.43;;;16.20;65.20;;;;;;10451903;28;20033;-59
2022/11/20 23:21:13;;;;;;;8.35;6.00;;;16.10;65.10;;;;;;10452080;28;20025;-58
2022/11/20 23:26:16;;;;;;;7.85;5.40;;;16.10;65.20;;;;;;10452535;28;20430;-59
2022/11/20 23:31:16;;;;;;;8.48;5.50;;;16.20;65.00;;;;;;10452355;28;20456;-59
2022/11/20 23:36:17;;;;;;;8.02;5.82;;;16.10;65.00;;;;;;10452463;28;20138;-59
2022/11/20 23:41:18;;;;;;;7.05;5.55;;;16.20;65.00;;;;;;10485383;28;20025;-60
2022/11/20 23:46:18;;;;;;;6.20;5.25;;;16.20;64.80;;;;;;10452426;28;20412;-59
2022/11/20 23:51:19;;;;;;;6.80;5.82;;;16.10;64.70;;;;;;10451412;28;20103;-59
2022/11/20 23:56:20;;;;;;;9.18;5.63;;;16.10;64.90;;;;;;10452111;28;20484;-59
